createdAt,value
2023-07-18T00:01:36.285Z,100770.06
2023-07-18T00:04:23.798Z,100768.84
2023-07-18T00:07:21.798Z,100757.63
2023-07-18T00:10:03.261Z,100752.22
2023-07-18T00:12:31.250Z,100753.69
2023-07-18T00:15:01.330Z,100752.31
2023-07-18T00:17:29.943Z,100750.63
2023-07-18T00:19:57.678Z,100747.41
2023-07-18T00:22:25.279Z,100740.69
2023-07-18T00:24:52.757Z,100742.88
2023-07-18T00:27:20.447Z,100740.81
2023-07-18T00:29:47.731Z,100742.97
2023-07-18T00:32:17.088Z,100742.34
2023-07-18T00:34:47.424Z,100742.34
2023-07-18T00:37:14.723Z,100747.34
2023-07-18T00:39:43.557Z,100741.28
2023-07-18T00:42:12.510Z,100743.75
2023-07-18T00:44:39.928Z,100737.44
2023-07-18T00:47:25.784Z,100740.13
2023-07-18T00:49:54.348Z,100733.97
2023-07-18T00:52:23.008Z,100731.44
2023-07-18T00:54:50.367Z,100725.38
2023-07-18T00:57:17.933Z,100727.91
2023-07-18T00:59:46.009Z,100727.97
2023-07-18T01:02:13.656Z,100722.84
2023-07-18T01:04:42.431Z,100732.28
2023-07-18T01:07:09.804Z,100720.44
2023-07-18T01:09:37.106Z,100718.13
2023-07-18T01:12:04.787Z,100722.00
2023-07-18T01:14:32.613Z,100725.13
2023-07-18T01:17:02.922Z,100718.69
2023-07-18T01:19:30.702Z,100710.06
2023-07-18T01:21:58.308Z,100710.63
2023-07-18T01:24:25.653Z,100705.75
2023-07-18T01:26:53.870Z,100710.38
2023-07-18T01:29:21.254Z,100712.16
2023-07-18T01:31:49.531Z,100712.06
2023-07-18T01:34:16.878Z,100712.78
2023-07-18T01:36:44.167Z,100707.25
2023-07-18T01:39:12.903Z,100713.53
2023-07-18T01:41:40.473Z,100713.91
2023-07-18T01:44:09.533Z,100709.78
2023-07-18T01:46:37.200Z,100713.38
2023-07-18T01:49:04.577Z,100715.06
2023-07-18T01:51:33.282Z,100711.94
2023-07-18T01:54:01.015Z,100707.16
2023-07-18T01:56:28.382Z,100711.00
2023-07-18T01:58:55.727Z,100706.63
2023-07-18T02:01:23.141Z,100712.31
2023-07-18T02:03:50.897Z,100706.94
2023-07-18T02:06:18.268Z,100711.50
2023-07-18T02:08:45.939Z,100710.06
2023-07-18T02:11:13.186Z,100714.53
2023-07-18T02:13:40.532Z,100714.41
2023-07-18T02:16:12.673Z,100704.31
2023-07-18T02:18:40.005Z,100711.44
2023-07-18T02:21:07.254Z,100708.00
2023-07-18T02:23:37.538Z,100709.50
2023-07-18T02:26:05.313Z,100710.59
2023-07-18T02:28:32.975Z,100700.03
2023-07-18T02:31:01.195Z,100700.66
2023-07-18T02:33:28.937Z,100692.28
2023-07-18T02:35:56.220Z,100693.41
2023-07-18T02:38:24.754Z,100682.09
2023-07-18T02:40:52.389Z,100683.66
2023-07-18T02:43:19.990Z,100687.56
2023-07-18T02:45:50.613Z,100680.66
2023-07-18T02:48:17.890Z,100680.72
2023-07-18T02:50:45.500Z,100677.88
2023-07-18T02:53:13.438Z,100671.75
2023-07-18T02:55:40.822Z,100674.25
2023-07-18T02:58:08.190Z,100677.28
2023-07-18T03:00:37.337Z,100671.66
2023-07-18T03:03:05.420Z,100674.03
2023-07-18T03:05:34.450Z,100677.09
2023-07-18T03:08:01.986Z,100675.03
2023-07-18T03:10:30.000Z,100681.97
2023-07-18T03:12:57.622Z,100683.81
2023-07-18T03:15:24.960Z,100685.16
2023-07-18T03:17:52.396Z,100689.25
2023-07-18T03:20:21.119Z,100680.13
2023-07-18T03:22:51.911Z,100687.69
2023-07-18T03:25:21.010Z,100688.09
2023-07-18T03:27:51.444Z,100688.69
2023-07-18T03:30:19.369Z,100688.94
2023-07-18T03:32:50.322Z,100684.94
2023-07-18T03:35:17.811Z,100682.47
2023-07-18T03:37:45.390Z,100681.47
2023-07-18T03:40:17.508Z,100684.22
2023-07-18T03:42:46.723Z,100691.28
2023-07-18T03:45:14.720Z,100687.41
2023-07-18T03:47:44.980Z,100691.78
2023-07-18T03:50:14.264Z,100692.81
2023-07-18T03:52:43.141Z,100686.41
2023-07-18T03:55:10.496Z,100684.38
2023-07-18T03:57:40.793Z,100689.09
2023-07-18T04:00:15.504Z,100689.00
2023-07-18T04:02:46.491Z,100686.53
2023-07-18T04:05:16.022Z,100677.94
2023-07-18T04:07:45.459Z,100677.50
2023-07-18T04:10:13.446Z,100671.47
2023-07-18T04:12:42.247Z,100663.44
2023-07-18T04:15:11.223Z,100672.38
2023-07-18T04:17:40.312Z,100671.31
2023-07-18T04:20:08.564Z,100663.06
2023-07-18T04:22:36.021Z,100655.66
2023-07-18T04:25:03.375Z,100660.53
2023-07-18T04:27:31.159Z,100658.22
2023-07-18T04:29:58.710Z,100664.97
2023-07-18T04:32:26.459Z,100668.53
2023-07-18T04:34:53.844Z,100677.47
2023-07-18T04:37:21.994Z,100671.41
2023-07-18T04:39:49.310Z,100668.88
2023-07-18T04:42:16.858Z,100670.81
2023-07-18T04:44:44.133Z,100669.44
2023-07-18T04:47:11.550Z,100671.13
2023-07-18T04:49:39.595Z,100663.03
2023-07-18T04:52:08.746Z,100660.31
2023-07-18T04:54:36.164Z,100662.66
2023-07-18T04:57:05.600Z,100659.28
2023-07-18T04:59:35.716Z,100664.66
2023-07-18T05:02:03.405Z,100656.56
2023-07-18T05:04:31.054Z,100660.09
2023-07-18T05:07:00.177Z,100657.72
2023-07-18T05:09:29.281Z,100657.50
2023-07-18T05:11:56.993Z,100648.38
2023-07-18T05:14:26.252Z,100655.78
2023-07-18T05:16:53.562Z,100658.84
2023-07-18T05:19:20.966Z,100665.66
2023-07-18T05:21:48.618Z,100653.84
2023-07-18T05:24:15.957Z,100658.97
2023-07-18T05:26:43.639Z,100651.53
2023-07-18T05:29:10.906Z,100652.03
2023-07-18T05:31:38.542Z,100648.63
2023-07-18T05:34:05.797Z,100652.72
2023-07-18T05:36:33.195Z,100652.72
2023-07-18T05:39:01.448Z,100648.47
2023-07-18T05:41:29.010Z,100646.75
2023-07-18T05:43:56.314Z,100641.88
2023-07-18T05:46:23.703Z,100636.94
2023-07-18T05:48:51.660Z,100631.53
2023-07-18T05:51:20.396Z,100627.47
2023-07-18T05:53:48.380Z,100629.63
2023-07-18T05:56:16.081Z,100613.31
2023-07-18T05:58:43.588Z,100619.00
2023-07-18T06:01:13.998Z,100620.47
2023-07-18T06:03:41.824Z,100619.59
2023-07-18T06:06:09.511Z,100628.03
2023-07-18T06:08:37.661Z,100612.97
2023-07-18T06:11:05.110Z,100612.53
2023-07-18T06:13:34.435Z,100602.59
2023-07-18T06:16:01.975Z,100609.00
2023-07-18T06:18:31.690Z,100609.28
2023-07-18T06:20:59.161Z,100611.25
2023-07-18T06:23:28.304Z,100613.16
2023-07-18T06:25:55.605Z,100610.34
2023-07-18T06:28:22.916Z,100611.28
2023-07-18T06:30:57.037Z,100608.69
2023-07-18T06:33:27.149Z,100606.31
2023-07-18T06:35:56.537Z,100603.91
2023-07-18T06:38:25.317Z,100608.78
2023-07-18T06:40:52.691Z,100605.03
2023-07-18T06:43:20.789Z,100601.88
2023-07-18T06:45:49.180Z,100604.38
2023-07-18T06:48:16.552Z,100600.25
2023-07-18T06:50:50.274Z,100598.91
2023-07-18T06:53:20.337Z,100595.16
2023-07-18T06:55:51.465Z,100601.97
2023-07-18T06:58:20.353Z,100591.13
2023-07-18T07:00:47.936Z,100587.44
2023-07-18T07:03:15.446Z,100590.78
2023-07-18T07:05:48.274Z,100587.34
2023-07-18T07:08:20.137Z,100586.31
2023-07-18T07:10:47.803Z,100587.66
2023-07-18T07:13:15.800Z,100587.94
2023-07-18T07:15:43.851Z,100575.00
2023-07-18T07:18:11.527Z,100579.16
2023-07-18T07:20:39.128Z,100577.25
2023-07-18T07:23:06.737Z,100577.50
2023-07-18T07:25:35.119Z,100584.84
2023-07-18T07:28:03.145Z,100580.72
2023-07-18T07:30:30.981Z,100586.41
2023-07-18T07:32:58.551Z,100572.25
2023-07-18T07:35:26.219Z,100583.25
2023-07-18T07:37:54.188Z,100582.88
2023-07-18T07:40:22.225Z,100581.72
2023-07-18T07:42:49.552Z,100573.28
2023-07-18T07:45:17.710Z,100572.94
2023-07-18T07:47:45.276Z,100572.97
2023-07-18T07:50:13.972Z,100569.22
2023-07-18T07:52:41.608Z,100568.56
2023-07-18T07:55:11.808Z,100563.13
2023-07-18T07:57:39.980Z,100571.13
2023-07-18T08:00:08.435Z,100559.41
2023-07-18T08:02:36.498Z,100556.09
2023-07-18T08:05:04.527Z,100557.63
2023-07-18T08:07:32.322Z,100552.19
2023-07-18T08:09:59.678Z,100554.53
2023-07-18T08:12:27.491Z,100555.38
2023-07-18T08:14:54.801Z,100552.00
2023-07-18T08:17:22.270Z,100556.22
2023-07-18T08:19:49.596Z,100549.09
2023-07-18T08:22:16.884Z,100549.91
2023-07-18T08:24:44.918Z,100537.38
2023-07-18T08:27:12.376Z,100536.53
2023-07-18T08:29:43.264Z,100538.59
2023-07-18T08:32:11.282Z,100531.50
2023-07-18T08:34:38.767Z,100531.94
2023-07-18T08:37:09.613Z,100523.97
2023-07-18T08:39:38.598Z,100524.59
2023-07-18T08:42:08.073Z,100528.31
2023-07-18T08:44:36.944Z,100527.25
2023-07-18T08:47:06.995Z,100520.31
2023-07-18T08:49:39.661Z,100517.19
2023-07-18T08:52:08.168Z,100524.75
2023-07-18T08:54:36.936Z,100516.19
2023-07-18T08:57:05.162Z,100522.88
2023-07-18T08:59:34.458Z,100516.19
2023-07-18T09:02:02.072Z,100514.25
2023-07-18T09:04:29.614Z,100513.16
2023-07-18T09:06:59.484Z,100512.97
2023-07-18T09:09:27.277Z,100515.50
2023-07-18T09:12:05.439Z,100510.81
2023-07-18T09:14:35.344Z,100506.13
2023-07-18T09:17:06.059Z,100509.94
2023-07-18T09:19:38.304Z,100508.44
2023-07-18T09:22:07.449Z,100501.97
2023-07-18T09:24:38.864Z,100504.00
2023-07-18T09:27:09.319Z,100501.25
2023-07-18T09:29:36.917Z,100504.06
2023-07-18T09:32:04.856Z,100507.44
2023-07-18T09:34:32.423Z,100493.78
2023-07-18T09:37:02.537Z,100500.63
2023-07-18T09:39:31.109Z,100494.22
2023-07-18T09:41:58.733Z,100491.63
2023-07-18T09:44:33.139Z,100488.38
2023-07-18T09:47:02.666Z,100485.38
2023-07-18T09:49:33.958Z,100474.00
2023-07-18T09:52:06.906Z,100473.91
2023-07-18T09:54:34.813Z,100478.53
2023-07-18T09:57:13.106Z,100464.59
2023-07-18T09:59:42.284Z,100461.91
2023-07-18T10:02:12.339Z,100461.69
2023-07-18T10:04:40.881Z,100451.03
2023-07-18T10:07:12.453Z,100447.41
2023-07-18T10:09:41.085Z,100441.19
2023-07-18T10:12:09.869Z,100442.22
2023-07-18T10:14:59.397Z,100443.31
2023-07-18T10:17:35.417Z,100443.28
2023-07-18T10:20:14.738Z,100441.47
2023-07-18T10:22:49.903Z,100433.13
2023-07-18T10:25:20.840Z,100433.94
2023-07-18T10:27:49.908Z,100430.13
2023-07-18T10:30:19.221Z,100435.50
2023-07-18T10:32:53.975Z,100428.19
2023-07-18T10:35:26.113Z,100425.88
2023-07-18T10:37:58.451Z,100425.44
2023-07-18T10:40:44.485Z,100434.28
2023-07-18T10:43:20.133Z,100429.31
2023-07-18T10:45:48.139Z,100412.25
2023-07-18T10:48:24.525Z,100413.69
2023-07-18T10:50:51.828Z,100424.50
2023-07-18T10:53:21.390Z,100414.66
2023-07-18T10:55:49.988Z,100426.53
2023-07-18T10:58:19.637Z,100409.56
2023-07-18T11:00:49.333Z,100410.00
2023-07-18T11:03:36.104Z,100408.81
2023-07-18T11:06:08.152Z,100406.88
2023-07-18T11:08:35.663Z,100404.66
2023-07-18T11:11:04.710Z,100408.47
2023-07-18T11:13:36.991Z,100388.44
2023-07-18T11:16:11.446Z,100389.69
2023-07-18T11:18:42.756Z,100386.38
2023-07-18T11:21:11.558Z,100394.47
2023-07-18T11:23:41.011Z,100386.16
2023-07-18T11:26:16.787Z,100378.63
2023-07-18T11:28:46.002Z,100378.47
2023-07-18T11:31:46.307Z,100376.31
2023-07-18T11:34:23.680Z,100376.91
2023-07-18T11:36:54.149Z,100371.38
2023-07-18T11:39:23.374Z,100373.03
2023-07-18T11:41:53.670Z,100367.81
2023-07-18T11:44:26.078Z,100364.22
2023-07-18T11:46:54.177Z,100355.94
2023-07-18T11:49:35.622Z,100357.63
2023-07-18T11:52:05.373Z,100360.06
2023-07-18T11:54:39.810Z,100350.88
2023-07-18T11:57:07.485Z,100346.47
2023-07-18T11:59:35.294Z,100343.00
2023-07-18T12:02:04.266Z,100332.44
2023-07-18T12:04:32.873Z,100340.78
2023-07-18T12:07:00.328Z,100333.66
2023-07-18T12:09:27.688Z,100323.84
2023-07-18T12:11:56.826Z,100321.81
2023-07-18T12:14:24.166Z,100321.84
2023-07-18T12:16:53.372Z,100315.56
2023-07-18T12:19:22.348Z,100313.38
2023-07-18T12:21:52.681Z,100308.00
2023-07-18T12:24:20.356Z,100314.00
2023-07-18T12:26:47.806Z,100304.44
2023-07-18T12:29:16.258Z,100306.00
2023-07-18T12:31:46.886Z,100310.72
2023-07-18T12:34:15.225Z,100293.59
2023-07-18T12:36:42.843Z,100288.63
2023-07-18T12:39:10.738Z,100282.78
2023-07-18T12:41:38.489Z,100277.53
2023-07-18T12:44:05.848Z,100266.50
2023-07-18T12:46:34.496Z,100271.25
2023-07-18T12:49:04.413Z,100267.16
2023-07-18T12:51:34.910Z,100269.16
2023-07-18T12:54:02.636Z,100260.56
2023-07-18T12:56:34.578Z,100263.78
2023-07-18T12:59:02.158Z,100261.47
2023-07-18T13:01:30.271Z,100254.69
2023-07-18T13:03:58.505Z,100260.47
2023-07-18T13:06:26.007Z,100238.03
2023-07-18T13:08:54.454Z,100244.81
2023-07-18T13:11:22.179Z,100242.84
2023-07-18T13:13:50.431Z,100234.63
2023-07-18T13:16:18.121Z,100234.78
2023-07-18T13:18:46.163Z,100222.44
2023-07-18T13:21:17.744Z,100221.47
2023-07-18T13:23:45.098Z,100218.91
2023-07-18T13:26:16.716Z,100217.53
2023-07-18T13:28:44.348Z,100212.66
2023-07-18T13:31:12.493Z,100207.44
2023-07-18T13:33:39.865Z,100203.63
2023-07-18T13:36:07.411Z,100196.75
2023-07-18T13:38:34.912Z,100206.72
2023-07-18T13:41:09.080Z,100193.66
2023-07-18T13:43:37.158Z,100192.28
2023-07-18T13:46:04.710Z,100180.09
2023-07-18T13:48:33.968Z,100186.06
2023-07-18T13:51:02.227Z,100181.50
2023-07-18T13:53:30.459Z,100182.78
2023-07-18T13:55:58.075Z,100175.78
2023-07-18T13:58:25.603Z,100184.34
2023-07-18T14:00:53.909Z,100176.66
2023-07-18T14:03:34.172Z,100168.41
2023-07-18T14:06:03.354Z,100169.38
2023-07-18T14:08:31.583Z,100164.13
2023-07-18T14:10:59.419Z,100165.03
2023-07-18T14:13:27.867Z,100160.94
2023-07-18T14:15:55.982Z,100166.94
2023-07-18T14:18:23.437Z,100167.75
2023-07-18T14:20:50.884Z,100164.66
2023-07-18T14:23:18.999Z,100158.72
2023-07-18T14:25:49.135Z,100153.59
2023-07-18T14:28:17.604Z,100149.28
2023-07-18T14:30:45.195Z,100157.19
2023-07-18T14:33:15.340Z,100151.91
2023-07-18T14:35:43.074Z,100136.94
2023-07-18T14:38:10.984Z,100136.47
2023-07-18T14:40:38.655Z,100124.81
2023-07-18T14:43:09.882Z,100132.28
2023-07-18T14:45:38.678Z,100138.41
2023-07-18T14:48:08.386Z,100133.97
2023-07-18T14:50:36.246Z,100142.63
2023-07-18T14:53:03.603Z,100141.34
2023-07-18T14:55:35.184Z,100153.25
2023-07-18T14:58:03.260Z,100148.47
2023-07-18T15:00:30.920Z,100146.25
2023-07-18T15:03:01.775Z,100142.56
2023-07-18T15:05:29.132Z,100142.22
2023-07-18T15:07:56.766Z,100140.59
2023-07-18T15:10:24.273Z,100136.06
2023-07-18T15:12:51.703Z,100146.16
2023-07-18T15:15:19.464Z,100151.00
2023-07-18T15:17:47.782Z,100152.75
2023-07-18T15:20:16.241Z,100140.00
2023-07-18T15:22:43.932Z,100139.56
2023-07-18T15:25:12.026Z,100142.78
2023-07-18T15:27:41.533Z,100150.50
2023-07-18T15:30:10.837Z,100147.44
2023-07-18T15:32:45.219Z,100141.47
2023-07-18T15:35:14.588Z,100141.31
2023-07-18T15:37:42.508Z,100146.41
2023-07-18T15:40:10.594Z,100139.78
2023-07-18T15:42:40.615Z,100157.72
2023-07-18T15:45:08.567Z,100155.69
2023-07-18T15:47:36.169Z,100151.88
2023-07-18T15:50:03.816Z,100152.03
2023-07-18T15:52:31.744Z,100157.50
2023-07-18T15:54:59.101Z,100160.22
2023-07-18T15:57:26.449Z,100152.34
2023-07-18T15:59:53.688Z,100154.84
2023-07-18T16:02:21.211Z,100162.41
2023-07-18T16:04:48.959Z,100153.78
2023-07-18T16:07:16.509Z,100149.78
2023-07-18T16:09:51.807Z,100151.44
2023-07-18T16:12:20.122Z,100156.00
2023-07-18T16:14:47.705Z,100152.25
2023-07-18T16:17:15.431Z,100154.34
2023-07-18T16:19:45.651Z,100156.50
2023-07-18T16:22:13.337Z,100163.22
2023-07-18T16:24:42.698Z,100166.97
2023-07-18T16:27:10.095Z,100207.19
2023-07-18T16:29:37.375Z,100213.78
2023-07-18T16:32:05.313Z,100218.41
2023-07-18T16:34:33.079Z,100227.06
2023-07-18T16:37:00.853Z,100237.69
2023-07-18T16:39:29.670Z,100248.91
2023-07-18T16:42:06.355Z,100252.50
2023-07-18T16:44:43.751Z,100265.97
2023-07-18T16:47:11.232Z,100271.53
2023-07-18T16:49:39.582Z,100267.41
2023-07-18T16:52:07.173Z,100287.81
2023-07-18T16:54:34.847Z,100283.56
2023-07-18T16:57:02.309Z,100283.59
2023-07-18T16:59:30.122Z,100281.13
2023-07-18T17:01:57.400Z,100285.72
2023-07-18T17:04:24.902Z,100286.31
2023-07-18T17:06:52.552Z,100288.72
2023-07-18T17:09:20.289Z,100279.84
2023-07-18T17:11:47.560Z,100277.16
2023-07-18T17:14:15.387Z,100285.91
2023-07-18T17:16:42.830Z,100283.59
2023-07-18T17:19:10.409Z,100280.34
2023-07-18T17:21:39.185Z,100298.09
2023-07-18T17:24:06.680Z,100293.47
2023-07-18T17:26:34.316Z,100292.13
2023-07-18T17:29:01.783Z,100284.25
2023-07-18T17:31:31.427Z,100288.84
2023-07-18T17:34:01.630Z,100290.25
2023-07-18T17:36:29.490Z,100292.56
2023-07-18T17:38:57.275Z,100299.88
2023-07-18T17:41:24.648Z,100302.56
2023-07-18T17:43:52.253Z,100311.63
2023-07-18T17:46:20.680Z,100311.44
2023-07-18T17:48:48.231Z,100309.19
2023-07-18T17:51:15.847Z,100319.19
2023-07-18T17:53:43.677Z,100318.53
2023-07-18T17:56:11.299Z,100322.72
2023-07-18T17:58:39.359Z,100323.56
2023-07-18T18:01:06.699Z,100325.22
2023-07-18T18:03:34.719Z,100328.00
2023-07-18T18:06:03.060Z,100339.94
2023-07-18T18:08:31.704Z,100339.63
2023-07-18T18:10:59.008Z,100338.97
2023-07-18T18:13:27.581Z,100346.91
2023-07-18T18:16:07.166Z,100346.91
2023-07-18T18:18:36.312Z,100347.50
2023-07-18T18:21:04.704Z,100356.81
2023-07-18T18:23:39.433Z,100356.25
2023-07-18T18:26:10.574Z,100353.47
2023-07-18T18:28:41.947Z,100354.44
2023-07-18T18:31:09.542Z,100355.66
2023-07-18T18:33:36.855Z,100353.34
2023-07-18T18:36:05.589Z,100353.66
2023-07-18T18:38:33.509Z,100349.94
2023-07-18T18:41:01.306Z,100353.91
2023-07-18T18:43:28.645Z,100352.81
2023-07-18T18:45:56.889Z,100345.88
2023-07-18T18:48:24.644Z,100352.75
2023-07-18T18:50:51.857Z,100362.59
2023-07-18T18:53:21.258Z,100365.59
2023-07-18T18:55:49.172Z,100363.00
2023-07-18T18:58:16.565Z,100363.31
2023-07-18T19:00:43.775Z,100366.91
2023-07-18T19:03:11.272Z,100361.34
2023-07-18T19:05:38.673Z,100361.13
2023-07-18T19:08:06.187Z,100367.53
2023-07-18T19:10:33.428Z,100371.72
2023-07-18T19:13:01.811Z,100369.22
2023-07-18T19:15:29.222Z,100374.63
2023-07-18T19:17:56.570Z,100377.31
2023-07-18T19:20:26.313Z,100378.22
2023-07-18T19:22:56.029Z,100367.09
2023-07-18T19:25:24.357Z,100370.97
2023-07-18T19:27:51.974Z,100360.19
2023-07-18T19:30:19.312Z,100364.88
2023-07-18T19:32:46.834Z,100364.09
2023-07-18T19:35:14.986Z,100357.53
2023-07-18T19:37:43.499Z,100368.66
2023-07-18T19:40:14.683Z,100361.38
2023-07-18T19:42:42.462Z,100359.34
2023-07-18T19:45:10.217Z,100366.97
2023-07-18T19:47:37.709Z,100361.53
2023-07-18T19:50:05.595Z,100365.47
2023-07-18T19:52:33.219Z,100375.78
2023-07-18T19:55:00.826Z,100372.06
2023-07-18T19:57:28.155Z,100376.50
2023-07-18T19:59:55.456Z,100379.69
2023-07-18T20:02:23.598Z,100391.47
2023-07-18T20:04:51.541Z,100382.22
2023-07-18T20:07:19.186Z,100383.94
2023-07-18T20:09:46.994Z,100394.38
2023-07-18T20:12:14.596Z,100396.94
2023-07-18T20:14:42.610Z,100391.91
2023-07-18T20:17:11.558Z,100393.75
2023-07-18T20:19:38.928Z,100401.53
2023-07-18T20:22:06.226Z,100403.91
2023-07-18T20:24:33.615Z,100404.28
2023-07-18T20:27:03.160Z,100406.47
2023-07-18T20:29:32.193Z,100410.00
2023-07-18T20:31:59.916Z,100406.66
2023-07-18T20:34:27.786Z,100408.50
2023-07-18T20:36:55.100Z,100411.88
2023-07-18T20:39:22.412Z,100399.06
2023-07-18T20:41:49.829Z,100408.34
2023-07-18T20:44:17.185Z,100409.81
2023-07-18T20:46:45.187Z,100404.78
2023-07-18T20:49:12.660Z,100405.31
2023-07-18T20:51:42.393Z,100407.66
2023-07-18T20:54:09.974Z,100411.38
2023-07-18T20:56:37.802Z,100406.97
2023-07-18T20:59:05.764Z,100414.59
2023-07-18T21:01:33.302Z,100410.69
2023-07-18T21:04:01.156Z,100410.41
2023-07-18T21:06:28.525Z,100410.41
2023-07-18T21:08:57.452Z,100413.75
2023-07-18T21:11:25.121Z,100410.88
2023-07-18T21:13:52.348Z,100412.59
2023-07-18T21:16:20.135Z,100411.56
2023-07-18T21:18:47.573Z,100409.56
2023-07-18T21:21:15.330Z,100413.94
2023-07-18T21:23:43.488Z,100421.88
2023-07-18T21:26:10.879Z,100415.13
2023-07-18T21:28:53.627Z,100414.13
2023-07-18T21:31:28.198Z,100418.84
2023-07-18T21:33:55.692Z,100417.50
2023-07-18T21:36:23.452Z,100412.78
2023-07-18T21:38:50.751Z,100407.75
2023-07-18T21:41:20.578Z,100416.19
2023-07-18T21:43:48.608Z,100416.50
2023-07-18T21:46:16.545Z,100417.03
2023-07-18T21:48:44.817Z,100416.50
2023-07-18T21:51:12.061Z,100423.25
2023-07-18T21:53:39.605Z,100428.66
2023-07-18T21:56:07.080Z,100434.38
2023-07-18T21:58:38.289Z,100437.22
2023-07-18T22:01:05.693Z,100443.63
2023-07-18T22:03:36.237Z,100438.94
2023-07-18T22:06:04.359Z,100437.06
2023-07-18T22:08:32.129Z,100446.16
2023-07-18T22:11:00.751Z,100446.31
2023-07-18T22:13:29.973Z,100453.09
2023-07-18T22:15:59.098Z,100446.53
2023-07-18T22:18:28.344Z,100442.16
2023-07-18T22:20:56.191Z,100445.72
2023-07-18T22:23:23.905Z,100449.91
2023-07-18T22:26:11.800Z,100451.25
2023-07-18T22:28:42.439Z,100447.22
2023-07-18T22:31:12.103Z,100445.53
2023-07-18T22:33:39.684Z,100444.84
2023-07-18T22:36:07.087Z,100446.06
2023-07-18T22:38:34.459Z,100448.91
2023-07-18T22:41:03.937Z,100448.91
2023-07-18T22:43:32.025Z,100448.22
2023-07-18T22:45:59.640Z,100446.72
2023-07-18T22:48:27.428Z,100450.09
2023-07-18T22:50:54.813Z,100446.38
2023-07-18T22:53:22.878Z,100454.13
2023-07-18T22:55:51.026Z,100452.59
2023-07-18T22:58:18.332Z,100459.34
2023-07-18T23:00:45.742Z,100466.06
2023-07-18T23:03:16.516Z,100467.72
2023-07-18T23:05:43.873Z,100464.38
2023-07-18T23:08:11.240Z,100470.91
2023-07-18T23:10:38.567Z,100468.75
2023-07-18T23:13:06.001Z,100464.50
2023-07-18T23:15:33.211Z,100471.75
2023-07-18T23:18:00.652Z,100482.69
2023-07-18T23:20:28.041Z,100484.16
2023-07-18T23:22:55.412Z,100487.88
2023-07-18T23:25:23.165Z,100489.56
2023-07-18T23:27:50.736Z,100482.78
2023-07-18T23:30:18.075Z,100494.38
2023-07-18T23:32:45.508Z,100498.56
2023-07-18T23:35:13.115Z,100500.25
2023-07-18T23:37:40.412Z,100502.59
2023-07-18T23:40:08.257Z,100504.66
2023-07-18T23:42:35.809Z,100504.66
2023-07-18T23:45:03.200Z,100503.06
2023-07-18T23:47:31.690Z,100507.59
2023-07-18T23:49:59.087Z,100514.66
2023-07-18T23:52:26.373Z,100513.66
2023-07-18T23:54:54.247Z,100511.47
2023-07-18T23:57:21.571Z,100519.53
2023-07-18T23:59:49.124Z,100518.53
